Time;durP1;ratioP1;P1;durP2;ratioP2;P2;SDS_P1;SDS_P2;PMS_P1;PMS_P2;Temp;Humidity;BMP_temperature;BMP_pressure;BME280_temperature;BME280_humidity;BME280_pressure;Samples;Min_cycle;Max_cycle;Signal;HPM_P1;HPM_P2
2021/04/15 05:07:17;;;;;;;;;;;;;;;2.57;89.65;97678.93;1739971;78;20492;-69
2021/04/15 05:09:51;;;;;;;;;;;;;;;2.61;90.15;97679.32;1690735;83;22505;-67
2021/04/15 05:12:26;;;;;;;;;;;;;;;2.66;90.64;97682.95;1705880;82;20599;-65
2021/04/15 05:14:56;;;;;;;;;;;;;;;2.71;89.88;97681.05;1702649;83;20504;-71
2021/04/15 05:17:36;;;;;;;;;;;;;;;2.74;89.54;97687.13;1705150;82;20476;-65
2021/04/15 05:20:09;;;;;;;;;;;;;;;2.77;89.34;97681.56;1697064;83;20507;-65
2021/04/15 05:22:46;;;;;;;;;;;;;;;2.80;88.86;97681.67;1685888;83;21781;-71
2021/04/15 05:25:36;;;;;;;;;;;;;;;2.82;88.91;97675.77;1663549;84;20504;-70
2021/04/15 05:28:09;;;;;;;;;;;;;;;2.85;86.94;97679.28;1676359;82;20232;-68
2021/04/15 05:30:46;;;;;;;;;;;;;;;2.87;86.76;97675.50;1731393;80;20956;-68
2021/04/15 05:33:23;;;;;;;;;;;;;;;2.91;86.57;97675.89;1738514;81;20543;-66
2021/04/15 05:36:13;;;;;;;;;;;;;;;2.95;85.73;97671.42;1733112;81;22049;-69
2021/04/15 05:38:44;;;;;;;;;;;;;;;2.98;85.79;97676.20;1736175;81;20485;-65
2021/04/15 05:41:18;;;;;;;;;;;;;;;3.01;84.53;97676.31;1737716;81;20741;-64
2021/04/15 05:43:47;;;;;;;;;;;;;;;3.02;83.93;97685.71;1742667;81;20266;-71
2021/04/15 05:46:27;;;;;;;;;;;;;;;3.05;83.77;97684.80;1742936;81;20591;-70
2021/04/15 05:49:00;;;;;;;;;;;;;;;3.08;82.95;97687.51;1716396;80;20596;-64
2021/04/15 05:51:37;;;;;;;;;;;;;;;3.10;83.34;97688.89;1735361;81;20611;-67
2021/04/15 05:54:07;;;;;;;;;;;;;;;3.15;83.00;97690.91;1738399;80;20528;-67
2021/04/15 05:56:58;;;;;;;;;;;;;;;3.21;83.12;97688.81;1736715;80;20518;-68
2021/04/15 05:59:47;;;;;;;;;;;;;;;3.25;82.45;97684.00;1724534;81;20485;-68
2021/04/15 06:02:24;;;;;;;;;;;;;;;3.28;81.68;97689.61;1730494;81;21865;-70
2021/04/15 06:04:58;;;;;;;;;;;;;;;3.31;81.12;97685.83;1735752;81;20615;-66
2021/04/15 06:07:26;;;;;;;;;;;;;;;3.34;80.51;97681.52;1730353;80;20606;-65
2021/04/15 06:09:53;;;;;;;;;;;;;;;3.37;81.08;97685.82;1740236;80;20438;-67
2021/04/15 06:12:37;;;;;;;;;;;;;;;3.44;81.09;97678.83;1741292;81;20631;-65
2021/04/15 06:15:10;;;;;;;;;;;;;;;3.51;81.11;97680.92;1738741;82;20818;-63
2021/04/15 06:17:43;;;;;;;;;;;;;;;3.61;81.25;97680.98;1738685;81;20481;-64
2021/04/15 06:20:29;;;;;;;;;;;;;;;3.65;79.27;97677.80;1733782;81;20509;-61
2021/04/15 06:22:59;;;;;;;;;;;;;;;3.64;78.95;97673.59;1741222;80;20493;-67
2021/04/15 06:25:36;;;;;;;;;;;;;;;3.66;79.33;97678.60;1714132;82;20594;-67
2021/04/15 06:28:07;;;;;;;;;;;;;;;3.68;79.49;97682.58;1723278;81;22028;-64
2021/04/15 06:30:43;;;;;;;;;;;;;;;3.73;79.22;97674.99;1731623;81;20471;-65
2021/04/15 06:33:14;;;;;;;;;;;;;;;3.78;79.28;97676.47;1735626;81;20477;-64
2021/04/15 06:35:46;;;;;;;;;;;;;;;3.85;78.46;97683.76;1738308;81;20432;-63
2021/04/15 06:38:25;;;;;;;;;;;;;;;3.89;77.95;97677.13;1742042;80;20489;-64
2021/04/15 06:41:19;;;;;;;;;;;;;;;3.98;77.37;97683.42;1740691;81;20808;-66
2021/04/15 06:44:09;;;;;;;;;;;;;;;4.02;76.87;97676.83;1737170;81;20481;-71
2021/04/15 06:47:11;;;;;;;;;;;;;;;4.07;76.18;97675.20;1738475;80;20216;-68
2021/04/15 06:50:11;;;;;;;;;;;;;;;4.14;76.02;97683.78;1740332;81;20477;-66
2021/04/15 06:53:12;;;;;;;;;;;;;;;4.16;75.30;97678.38;1738143;81;20551;-67
2021/04/15 06:55:52;;;;;;;;;;;;;;;4.27;75.68;97683.73;1739246;81;21829;-65
2021/04/15 06:58:39;;;;;;;;;;;;;;;4.36;74.53;97667.89;1740509;81;20623;-64
2021/04/15 07:01:20;;;;;;;;;;;;;;;4.39;74.11;97680.00;1731244;81;20587;-61
2021/04/15 07:03:55;;;;;;;;;;;;;;;4.44;73.92;97675.46;1752419;81;20486;-64
2021/04/15 07:06:45;;;;;;;;;;;;;;;4.49;74.40;97671.73;1742467;81;20930;-64
2021/04/15 07:09:37;;;;;;;;;;;;;;;4.55;74.92;97671.69;1740938;81;21957;-64
2021/04/15 07:12:36;;;;;;;;;;;;;;;4.69;75.09;97675.02;1740843;81;20480;-69
2021/04/15 07:15:15;;;;;;;;;;;;;;;4.82;74.67;97672.36;1741021;81;20501;-66
2021/04/15 07:18:10;;;;;;;;;;;;;;;4.93;72.51;97672.18;1742702;81;20497;-64
2021/04/15 07:21:06;;;;;;;;;;;;;;;4.99;73.01;97673.94;1741941;81;20651;-66
2021/04/15 07:24:03;;;;;;;;;;;;;;;5.01;72.21;97676.64;1736337;81;20694;-63
2021/04/15 07:26:58;;;;;;;;;;;;;;;5.06;71.67;97674.69;1742518;81;20234;-65
2021/04/15 07:29:45;;;;;;;;;;;;;;;5.04;70.25;97674.13;1734623;81;20405;-64
2021/04/15 07:32:33;;;;;;;;;;;;;;;4.98;70.73;97685.36;1713640;81;20216;-65
2021/04/15 07:35:12;;;;;;;;;;;;;;;4.94;71.23;97676.38;1740823;81;20560;-63
2021/04/15 07:38:01;;;;;;;;;;;;;;;5.00;71.62;97678.14;1719958;81;20941;-62
2021/04/15 07:41:00;;;;;;;;;;;;;;;5.10;71.95;97688.41;1728323;81;20604;-63
2021/04/15 07:43:43;;;;;;;;;;;;;;;5.24;70.43;97695.62;1725473;81;20482;-68
2021/04/15 07:46:33;;;;;;;;;;;;;;;5.40;70.82;97679.44;1716667;81;20504;-63
2021/04/15 07:49:23;;;;;;;;;;;;;;;5.60;69.85;97683.70;1711842;81;20600;-62
2021/04/15 07:52:26;;;;;;;;;;;;;;;5.74;68.69;97685.97;1719157;81;21905;-64
2021/04/15 07:55:14;;;;;;;;;;;;;;;5.79;68.09;97678.80;1720135;83;20478;-64
2021/04/15 07:58:00;;;;;;;;;;;;;;;5.70;67.92;97678.77;1722164;80;20571;-66
2021/04/15 08:00:31;;;;;;;;;;;;;;;5.52;67.54;97687.88;1717131;81;20586;-63
2021/04/15 08:03:06;;;;;;;;;;;;;;;5.43;68.67;97682.13;1714489;80;20762;-65
2021/04/15 08:05:53;;;;;;;;;;;;;;;5.41;68.85;97683.64;1718378;81;22075;-65
2021/04/15 08:08:27;;;;;;;;;;;;;;;5.44;69.60;97691.55;1721308;80;20488;-66
2021/04/15 08:11:10;;;;;;;;;;;;;;;5.45;69.73;97675.70;1717656;81;20685;-63
2021/04/15 08:13:59;;;;;;;;;;;;;;;5.53;70.28;97675.94;1718876;81;20222;-62
2021/04/15 08:16:37;;;;;;;;;;;;;;;5.68;69.46;97673.00;1720886;81;20568;-67
2021/04/15 08:19:26;;;;;;;;;;;;;;;5.82;68.97;97672.66;1717435;80;20813;-64
2021/04/15 08:22:10;;;;;;;;;;;;;;;5.98;68.46;97680.42;1717522;80;20473;-65
2021/04/15 08:25:01;;;;;;;;;;;;;;;6.13;67.48;97676.15;1717682;81;20484;-67
2021/04/15 08:27:48;;;;;;;;;;;;;;;6.28;67.49;97677.89;1708194;81;20609;-66
2021/04/15 08:30:31;;;;;;;;;;;;;;;6.40;66.45;97669.63;1723269;80;20887;-64
2021/04/15 08:33:23;;;;;;;;;;;;;;;6.49;67.36;97674.81;1720278;81;22076;-62
2021/04/15 08:36:23;;;;;;;;;;;;;;;6.56;66.07;97679.95;1704494;82;20477;-64
2021/04/15 08:39:29;;;;;;;;;;;;;;;6.61;64.88;97679.60;1697597;81;20167;-62
2021/04/15 08:42:21;;;;;;;;;;;;;;;6.70;66.25;97673.54;1670807;83;20435;-66
2021/04/15 08:45:01;;;;;;;;;;;;;;;6.81;65.16;97675.92;1704738;81;20547;-66
2021/04/15 08:47:52;;;;;;;;;;;;;;;6.93;64.62;97667.59;1702304;82;20822;-63
2021/04/15 08:50:24;;;;;;;;;;;;;;;6.99;64.15;97671.92;1684056;83;20595;-65
2021/04/15 08:53:02;;;;;;;;;;;;;;;7.02;65.81;97671.49;1716636;83;20487;-63
2021/04/15 08:55:33;;;;;;;;;;;;;;;7.11;63.52;97670.16;1683868;83;20703;-63
2021/04/15 08:58:26;;;;;;;;;;;;;;;7.19;63.70;97666.42;1686392;84;20550;-64
2021/04/15 09:01:03;;;;;;;;;;;;;;;7.28;63.13;97671.08;1682714;83;21884;-64
2021/04/15 09:03:41;;;;;;;;;;;;;;;7.29;62.35;97667.45;1677213;83;20598;-65
2021/04/15 09:06:43;;;;;;;;;;;;;;;7.40;63.17;97665.88;1864616;75;20666;-64
2021/04/15 09:09:20;;;;;;;;;;;;;;;7.50;63.36;97663.48;1826152;77;20573;-66
2021/04/15 09:12:06;;;;;;;;;;;;;;;7.57;62.16;97656.33;1814811;77;20670;-66
2021/04/15 09:14:40;;;;;;;;;;;;;;;7.53;61.96;97657.81;1817494;78;20642;-64
2021/04/15 09:17:13;;;;;;;;;;;;;;;7.48;61.88;97664.25;1817511;78;20475;-66
2021/04/15 09:19:48;;;;;;;;;;;;;;;7.52;62.25;97660.14;1817408;78;20598;-66
2021/04/15 09:22:27;;;;;;;;;;;;;;;7.57;62.01;97656.33;1817647;77;20477;-63
2021/04/15 09:25:08;;;;;;;;;;;;;;;7.58;62.00;97660.53;1781709;78;20846;-63
2021/04/15 09:27:47;;;;;;;;;;;;;;;7.51;61.97;97655.92;1817625;78;20520;-65
2021/04/15 09:30:40;;;;;;;;;;;;;;;7.41;61.88;97657.02;1817698;78;20492;-65
2021/04/15 09:33:32;;;;;;;;;;;;;;;7.37;62.87;97660.59;1817879;77;20495;-64
2021/04/15 09:36:15;;;;;;;;;;;;;;;7.39;63.08;97662.47;1817601;78;20615;-68
2021/04/15 09:39:06;;;;;;;;;;;;;;;7.52;62.43;97658.03;1816435;78;22038;-65
2021/04/15 09:42:08;;;;;;;;;;;;;;;7.59;62.77;97662.13;1850123;76;20233;-65
2021/04/15 09:45:01;;;;;;;;;;;;;;;7.67;62.05;97655.25;1861537;76;20569;-63
2021/04/15 09:47:43;;;;;;;;;;;;;;;7.71;62.02;97650.34;1861542;76;20477;-61
2021/04/15 09:50:21;;;;;;;;;;;;;;;7.77;62.69;97647.64;1862425;76;20493;-64
2021/04/15 09:52:55;;;;;;;;;;;;;;;7.91;61.26;97653.94;1850391;76;21902;-72
2021/04/15 09:55:29;;;;;;;;;;;;;;;7.96;61.25;97654.83;1812102;77;20184;-66
2021/04/15 09:58:22;;;;;;;;;;;;;;;8.07;61.14;97654.52;1847556;77;20498;-63
2021/04/15 10:00:54;;;;;;;;;;;;;;;8.13;60.21;97653.61;1848349;77;20224;-64
2021/04/15 10:03:39;;;;;;;;;;;;;;;8.22;60.24;97649.59;1845367;77;20474;-65
2021/04/15 10:06:31;;;;;;;;;;;;;;;8.19;60.19;97650.86;1824400;76;22127;-63
2021/04/15 10:09:02;;;;;;;;;;;;;;;8.16;60.01;97646.59;1845790;77;20542;-69
2021/04/15 10:11:36;;;;;;;;;;;;;;;8.09;59.97;97645.41;1848987;77;20635;-63
2021/04/15 10:14:17;;;;;;;;;;;;;;;8.00;60.07;97650.72;1845247;77;20551;-65
2021/04/15 10:16:51;;;;;;;;;;;;;;;8.01;61.05;97642.35;1836701;77;20570;-61
2021/04/15 10:19:49;;;;;;;;;;;;;;;8.18;60.88;97646.66;1836039;77;20587;-63
2021/04/15 10:22:30;;;;;;;;;;;;;;;8.30;61.07;97645.81;1846043;77;20474;-63
2021/04/15 10:25:14;;;;;;;;;;;;;;;8.29;59.86;97643.70;1834339;77;20593;-64
2021/04/15 10:28:14;;;;;;;;;;;;;;;8.24;60.41;97648.34;1832864;77;20584;-64
2021/04/15 10:31:08;;;;;;;;;;;;;;;8.25;60.59;97645.21;1829560;77;20244;-62
2021/04/15 10:33:52;;;;;;;;;;;;;;;8.31;60.46;97645.62;1833443;77;21945;-61
2021/04/15 10:36:53;;;;;;;;;;;;;;;8.32;60.66;97643.80;1835605;77;20568;-63
2021/04/15 10:39:36;;;;;;;;;;;;;;;8.32;60.57;97637.25;1828095;77;20480;-62
2021/04/15 10:42:30;;;;;;;;;;;;;;;8.27;59.92;97637.92;1836290;76;20477;-66
2021/04/15 10:45:14;;;;;;;;;;;;;;;8.27;62.39;97643.16;1818991;77;20549;-70
2021/04/15 10:48:20;;;;;;;;;;;;;;;8.42;61.15;97644.80;1835135;77;21882;-63
2021/04/15 10:50:57;;;;;;;;;;;;;;;8.42;60.77;97638.77;1841835;77;20302;-62
2021/04/15 10:53:43;;;;;;;;;;;;;;;8.43;60.74;97642.44;1830003;77;20478;-64
2021/04/15 10:56:13;;;;;;;;;;;;;;;8.49;60.51;97649.39;1849474;77;20482;-60
2021/04/15 10:58:46;;;;;;;;;;;;;;;8.59;59.46;97640.91;1845478;77;20826;-63
2021/04/15 11:01:25;;;;;;;;;;;;;;;8.70;59.95;97648.45;1847995;77;21927;-63
2021/04/15 11:03:54;;;;;;;;;;;;;;;8.76;60.84;97639.13;1847885;76;20553;-67
2021/04/15 11:06:40;;;;;;;;;;;;;;;8.78;59.58;97640.20;1845175;77;20237;-66
2021/04/15 11:09:33;;;;;;;;;;;;;;;8.75;59.92;97641.97;1824947;77;20491;-66
2021/04/15 11:12:17;;;;;;;;;;;;;;;8.55;60.10;97639.80;1818891;77;20703;-66
2021/04/15 11:14:48;;;;;;;;;;;;;;;8.50;60.53;97647.56;1829310;77;21976;-64
2021/04/15 11:17:20;;;;;;;;;;;;;;;8.52;61.44;97642.86;1814831;77;20403;-65
2021/04/15 11:19:49;;;;;;;;;;;;;;;8.55;60.56;97652.38;1815636;77;20585;-60
2021/04/15 11:22:30;;;;;;;;;;;;;;;8.54;60.95;97646.05;1791838;77;20324;-63
2021/04/15 11:25:23;;;;;;;;;;;;;;;8.40;61.19;97638.99;1824532;77;20219;-62
2021/04/15 11:27:52;;;;;;;;;;;;;;;8.26;62.55;97640.27;1816775;77;22068;-60
2021/04/15 11:30:45;;;;;;;;;;;;;;;8.28;61.81;97639.52;1819979;77;20540;-60
2021/04/15 11:33:33;;;;;;;;;;;;;;;8.31;62.08;97638.27;1816644;77;20493;-61
2021/04/15 11:36:06;;;;;;;;;;;;;;;8.38;63.01;97642.86;1829687;77;20487;-62
2021/04/15 11:38:34;;;;;;;;;;;;;;;8.44;61.87;97634.87;1757135;79;21210;-62
2021/04/15 11:41:24;;;;;;;;;;;;;;;8.45;62.22;97639.59;1764136;80;21980;-64
2021/04/15 11:44:16;;;;;;;;;;;;;;;8.40;61.91;97644.23;1766527;79;20285;-63
2021/04/15 11:46:53;;;;;;;;;;;;;;;8.35;62.28;97642.83;1766504;79;20394;-61
2021/04/15 11:49:37;;;;;;;;;;;;;;;8.36;62.27;97639.67;1765066;79;20588;-67
2021/04/15 11:52:24;;;;;;;;;;;;;;;8.39;62.69;97640.02;1761589;80;20622;-63
2021/04/15 11:54:55;;;;;;;;;;;;;;;8.49;62.26;97638.91;1768170;79;21729;-70
2021/04/15 11:57:30;;;;;;;;;;;;;;;8.50;62.69;97640.47;1763516;79;20491;-65
2021/04/15 12:00:03;;;;;;;;;;;;;;;8.46;63.03;97638.56;1762017;80;20576;-66
2021/04/15 12:02:55;;;;;;;;;;;;;;;8.43;63.31;97637.20;1768939;79;20483;-61
2021/04/15 12:05:28;;;;;;;;;;;;;;;8.37;62.75;97645.20;1771816;79;20660;-63
2021/04/15 12:08:22;;;;;;;;;;;;;;;8.22;63.49;97645.15;1781396;79;22042;-65
2021/04/15 12:11:08;;;;;;;;;;;;;;;8.11;63.74;97645.19;1748463;80;20487;-67
2021/04/15 12:13:48;;;;;;;;;;;;;;;8.04;64.59;97641.39;1766154;80;20629;-64
2021/04/15 12:16:38;;;;;;;;;;;;;;;8.11;64.65;97642.57;1760751;80;20479;-64
2021/04/15 12:19:20;;;;;;;;;;;;;;;8.20;64.74;97648.53;1776014;80;20676;-61
2021/04/15 12:22:27;;;;;;;;;;;;;;;8.22;64.38;97645.66;1774940;79;22054;-63
2021/04/15 12:25:07;;;;;;;;;;;;;;;8.21;63.86;97642.79;1743981;80;20488;-64
2021/04/15 12:27:36;;;;;;;;;;;;;;;8.17;64.92;97645.57;1751895;80;20399;-62
2021/04/15 12:30:17;;;;;;;;;;;;;;;8.13;64.84;97640.53;1749323;80;20229;-62
2021/04/15 12:32:55;;;;;;;;;;;;;;;8.08;65.57;97634.66;1762469;79;20602;-66
2021/04/15 12:35:43;;;;;;;;;;;;;;;8.03;66.06;97633.25;1753916;80;21942;-67
2021/04/15 12:38:23;;;;;;;;;;;;;;;7.99;66.52;97637.88;1754088;80;20481;-68
2021/04/15 12:40:57;;;;;;;;;;;;;;;7.96;67.04;97648.80;1764617;79;20376;-64
2021/04/15 12:43:31;;;;;;;;;;;;;;;7.84;67.15;97641.77;1753719;80;20499;-62
2021/04/15 12:46:06;;;;;;;;;;;;;;;7.73;68.10;97645.18;1754119;80;20521;-69
2021/04/15 12:48:45;;;;;;;;;;;;;;;7.70;68.50;97640.42;1760472;80;21555;-63
2021/04/15 12:51:24;;;;;;;;;;;;;;;7.64;69.66;97645.23;1762003;80;20233;-65
2021/04/15 12:54:26;;;;;;;;;;;;;;;7.63;70.55;97647.59;1830972;77;20521;-64
2021/04/15 12:56:58;;;;;;;;;;;;;;;7.54;70.84;97645.03;1733563;80;20700;-66
2021/04/15 12:59:35;;;;;;;;;;;;;;;7.49;70.19;97649.35;1748088;80;21894;-66
2021/04/15 13:02:04;;;;;;;;;;;;;;;7.33;71.41;97649.00;1745416;80;20975;-67
2021/04/15 13:04:40;;;;;;;;;;;;;;;7.24;72.06;97646.94;1717913;81;20618;-65
2021/04/15 13:07:14;;;;;;;;;;;;;;;7.19;71.86;97650.23;1749409;80;20509;-62
2021/04/15 13:09:44;;;;;;;;;;;;;;;7.19;71.67;97646.31;1748770;80;20713;-61
2021/04/15 13:12:22;;;;;;;;;;;;;;;7.19;71.60;97650.74;1744078;80;21938;-61
2021/04/15 13:14:54;;;;;;;;;;;;;;;7.22;71.68;97648.97;1729726;80;20496;-62
2021/04/15 13:17:39;;;;;;;;;;;;;;;7.30;71.93;97646.03;1736076;80;20446;-65
2021/04/15 13:20:24;;;;;;;;;;;;;;;7.38;71.16;97646.49;1744823;81;20477;-64
2021/04/15 13:23:12;;;;;;;;;;;;;;;7.42;72.59;97645.01;1743815;80;20593;-65
2021/04/15 13:25:54;;;;;;;;;;;;;;;7.44;72.71;97642.17;1746266;80;21054;-67
2021/04/15 13:28:47;;;;;;;;;;;;;;;7.38;72.35;97652.23;1747696;80;20481;-69
2021/04/15 13:31:44;;;;;;;;;;;;;;;7.29;73.97;97647.05;1751441;80;20572;-65
2021/04/15 13:34:22;;;;;;;;;;;;;;;7.26;73.90;97650.92;1752973;80;20508;-64
2021/04/15 13:36:53;;;;;;;;;;;;;;;7.17;74.79;97658.80;1753672;80;20569;-69
2021/04/15 13:39:34;;;;;;;;;;;;;;;7.09;74.87;97652.59;1752978;80;22157;-71
2021/04/15 13:42:06;;;;;;;;;;;;;;;7.01;76.99;97652.91;1747331;80;20489;-66
2021/04/15 13:44:55;;;;;;;;;;;;;;;6.95;76.73;97661.14;1732431;81;20501;-64
2021/04/15 13:47:45;;;;;;;;;;;;;;;6.82;75.67;97656.11;1735428;80;20505;-68
2021/04/15 13:50:13;;;;;;;;;;;;;;;6.73;77.00;97663.17;1752047;80;20782;-67
2021/04/15 13:52:41;;;;;;;;;;;;;;;6.69;77.18;97668.56;1751028;80;21745;-67
2021/04/15 13:55:31;;;;;;;;;;;;;;;6.67;77.11;97666.16;1743639;80;20534;-62
2021/04/15 13:57:59;;;;;;;;;;;;;;;6.68;77.97;97668.27;1753416;80;20580;-63
2021/04/15 14:00:42;;;;;;;;;;;;;;;6.71;78.52;97666.50;1701739;82;20515;-65
2021/04/15 14:03:11;;;;;;;;;;;;;;;6.75;77.71;97667.16;1701956;82;20836;-62
